createdAt,value
2019-03-16T00:01:57.045Z,94.30
2019-03-16T00:04:19.138Z,93.50
2019-03-16T00:07:32.160Z,95.30
2019-03-16T00:09:50.225Z,95.40
2019-03-16T00:12:25.768Z,96.60
2019-03-16T00:14:55.373Z,97.20
2019-03-16T00:17:25.139Z,96.40
2019-03-16T00:19:54.959Z,95.80
2019-03-16T00:22:24.966Z,99.90
2019-03-16T00:24:54.803Z,97.00
2019-03-16T00:27:24.834Z,90.70
2019-03-16T00:29:55.522Z,89.70
2019-03-16T00:32:25.252Z,94.00
2019-03-16T00:34:55.140Z,98.70
2019-03-16T00:37:24.844Z,99.90
2019-03-16T00:39:54.491Z,99.90
2019-03-16T00:42:24.226Z,99.90
2019-03-16T00:44:54.057Z,99.90
2019-03-16T00:47:23.931Z,99.90
2019-03-16T00:49:53.756Z,99.90
2019-03-16T00:52:23.507Z,99.90
2019-03-16T00:54:53.141Z,99.90
2019-03-16T00:57:23.280Z,99.90
2019-03-16T00:59:53.312Z,99.90
2019-03-16T01:02:27.457Z,99.90
2019-03-16T01:04:54.647Z,99.90
2019-03-16T01:07:24.490Z,94.90
2019-03-16T01:09:54.151Z,90.70
2019-03-16T01:12:24.114Z,80.90
2019-03-16T01:14:53.786Z,80.20
2019-03-16T01:17:23.468Z,78.50
2019-03-16T01:19:53.123Z,69.40
2019-03-16T01:22:22.844Z,67.80
2019-03-16T01:24:52.532Z,65.30
2019-03-16T01:27:22.262Z,67.10
2019-03-16T01:29:51.910Z,62.90
2019-03-16T01:32:21.608Z,63.50
2019-03-16T01:34:51.291Z,63.40
2019-03-16T01:37:20.971Z,67.30
2019-03-16T01:39:50.627Z,69.00
2019-03-16T01:42:20.348Z,71.30
2019-03-16T01:44:50.090Z,75.00
2019-03-16T01:47:19.861Z,79.10
2019-03-16T01:49:49.564Z,74.30
2019-03-16T01:52:19.244Z,75.80
2019-03-16T01:54:48.890Z,76.50
2019-03-16T01:57:18.609Z,78.70
2019-03-16T01:59:48.296Z,68.10
2019-03-16T02:02:18.004Z,63.60
2019-03-16T02:04:47.716Z,61.60
2019-03-16T02:07:17.442Z,60.30
2019-03-16T02:09:47.059Z,61.90
2019-03-16T02:12:16.802Z,62.10
2019-03-16T02:14:46.494Z,63.90
2019-03-16T02:17:18.943Z,64.30
2019-03-16T02:19:48.650Z,71.10
2019-03-16T02:22:18.474Z,70.50
2019-03-16T02:24:48.188Z,68.90
2019-03-16T02:27:17.873Z,73.30
2019-03-16T02:29:47.509Z,71.80
2019-03-16T02:32:17.238Z,67.70
2019-03-16T02:34:46.993Z,68.90
2019-03-16T02:37:16.675Z,67.50
2019-03-16T02:39:46.367Z,63.80
2019-03-16T02:42:16.045Z,66.70
2019-03-16T02:44:45.690Z,66.60
2019-03-16T02:47:15.419Z,69.50
2019-03-16T02:49:45.090Z,68.20
2019-03-16T02:52:14.774Z,65.70
2019-03-16T02:54:44.460Z,69.80
2019-03-16T02:57:14.108Z,66.20
2019-03-16T02:59:43.944Z,63.80
2019-03-16T03:02:13.588Z,64.70
2019-03-16T03:04:46.018Z,63.90
2019-03-16T03:07:14.586Z,64.70
2019-03-16T03:09:47.269Z,63.20
2019-03-16T03:12:16.891Z,60.60
2019-03-16T03:14:46.632Z,59.50
2019-03-16T03:17:16.345Z,56.80
2019-03-16T03:19:46.125Z,57.80
2019-03-16T03:22:15.841Z,55.30
2019-03-16T03:24:45.731Z,55.90
2019-03-16T03:27:15.562Z,56.90
2019-03-16T03:29:45.319Z,62.70
2019-03-16T03:32:15.008Z,64.80
2019-03-16T03:34:44.714Z,60.30
2019-03-16T03:37:14.427Z,59.90
2019-03-16T03:39:44.146Z,56.70
2019-03-16T03:42:13.826Z,57.80
2019-03-16T03:44:43.569Z,57.60
2019-03-16T03:47:13.295Z,59.00
2019-03-16T03:49:42.949Z,62.00
2019-03-16T03:52:12.708Z,62.60
2019-03-16T03:54:42.413Z,65.10
2019-03-16T03:57:12.096Z,62.40
2019-03-16T03:59:41.793Z,64.60
2019-03-16T04:02:11.606Z,62.50
2019-03-16T04:04:41.800Z,68.70
2019-03-16T04:07:11.609Z,62.80
2019-03-16T04:09:41.363Z,61.20
2019-03-16T04:12:11.059Z,59.80
2019-03-16T04:14:41.003Z,60.40
2019-03-16T04:17:10.800Z,60.00
2019-03-16T04:19:40.630Z,59.80
2019-03-16T04:22:10.277Z,58.80
2019-03-16T04:24:39.984Z,56.30
2019-03-16T04:27:15.927Z,59.40
2019-03-16T04:29:41.020Z,57.50
2019-03-16T04:32:10.682Z,58.40
2019-03-16T04:34:40.501Z,57.50
2019-03-16T04:37:10.160Z,60.30
2019-03-16T04:39:39.883Z,59.30
2019-03-16T04:42:09.578Z,60.50
2019-03-16T04:44:39.371Z,63.60
2019-03-16T04:47:09.033Z,61.20
2019-03-16T04:49:38.756Z,61.20
2019-03-16T04:52:08.394Z,62.10
2019-03-16T04:54:38.082Z,65.10
2019-03-16T04:57:07.748Z,64.60
2019-03-16T04:59:37.527Z,70.40
2019-03-16T05:02:07.183Z,65.70
2019-03-16T05:04:42.335Z,63.90
2019-03-16T05:07:08.272Z,64.00
2019-03-16T05:09:37.970Z,65.00
2019-03-16T05:12:07.661Z,65.40
2019-03-16T05:14:37.324Z,65.20
2019-03-16T05:17:06.982Z,65.90
2019-03-16T05:19:36.706Z,66.40
2019-03-16T05:22:06.522Z,64.90
2019-03-16T05:24:36.246Z,67.80
2019-03-16T05:27:06.019Z,62.70
2019-03-16T05:29:35.782Z,62.70
2019-03-16T05:32:05.563Z,62.70
2019-03-16T05:34:35.252Z,62.00
2019-03-16T05:37:04.964Z,63.40
2019-03-16T05:39:34.663Z,61.70
2019-03-16T05:42:05.347Z,60.20
2019-03-16T05:44:35.319Z,61.00
2019-03-16T05:47:04.949Z,60.40
2019-03-16T05:49:34.732Z,63.00
2019-03-16T05:52:04.414Z,61.90
2019-03-16T05:54:34.103Z,61.60
2019-03-16T05:57:03.768Z,62.70
2019-03-16T05:59:33.487Z,62.40
2019-03-16T06:02:03.133Z,61.30
2019-03-16T06:04:32.855Z,62.30
2019-03-16T06:07:02.534Z,63.60
2019-03-16T06:09:32.314Z,62.60
2019-03-16T06:12:01.980Z,62.60
2019-03-16T06:14:31.807Z,59.10
2019-03-16T06:17:01.447Z,61.50
2019-03-16T06:19:31.235Z,56.90
2019-03-16T06:22:00.921Z,55.70
2019-03-16T06:24:30.578Z,56.30
2019-03-16T06:27:00.328Z,56.80
2019-03-16T06:29:30.094Z,57.00
2019-03-16T06:31:59.778Z,58.40
2019-03-16T06:34:29.412Z,58.80
2019-03-16T06:37:01.421Z,59.50
2019-03-16T06:39:31.066Z,63.80
2019-03-16T06:42:00.740Z,60.60
2019-03-16T06:44:30.560Z,60.30
2019-03-16T06:47:00.323Z,59.70
2019-03-16T06:49:30.005Z,59.00
2019-03-16T06:51:59.770Z,60.80
2019-03-16T06:54:29.452Z,60.60
2019-03-16T06:56:59.235Z,61.80
2019-03-16T06:59:28.903Z,62.70
2019-03-16T07:01:58.595Z,59.50
2019-03-16T07:04:28.335Z,59.50
2019-03-16T07:06:58.104Z,57.90
2019-03-16T07:09:27.823Z,55.80
2019-03-16T07:11:57.498Z,55.80
2019-03-16T07:14:27.142Z,56.00
2019-03-16T07:17:01.970Z,55.70
2019-03-16T07:19:28.188Z,55.20
2019-03-16T07:21:57.877Z,54.30
2019-03-16T07:24:29.629Z,53.30
2019-03-16T07:26:59.366Z,52.00
2019-03-16T07:29:29.045Z,47.60
2019-03-16T07:31:58.773Z,42.50
2019-03-16T07:34:28.407Z,41.50
2019-03-16T07:36:58.127Z,39.50
2019-03-16T07:39:29.628Z,36.20
2019-03-16T07:42:00.767Z,38.80
2019-03-16T07:44:31.066Z,36.40
2019-03-16T07:47:01.088Z,33.40
2019-03-16T07:49:32.253Z,31.00
2019-03-16T07:52:02.574Z,28.60
2019-03-16T07:54:32.721Z,29.90
2019-03-16T07:57:02.982Z,28.90
2019-03-16T07:59:32.689Z,27.80
2019-03-16T08:02:02.363Z,28.90
2019-03-16T08:04:32.183Z,30.00
2019-03-16T08:07:01.879Z,31.80
2019-03-16T08:09:31.528Z,35.30
2019-03-16T08:12:01.242Z,36.70
2019-03-16T08:14:30.945Z,37.60
2019-03-16T08:17:00.614Z,39.00
2019-03-16T08:19:30.435Z,40.00
2019-03-16T08:22:00.125Z,36.00
2019-03-16T08:24:30.475Z,36.20
2019-03-16T08:27:00.211Z,35.50
2019-03-16T08:29:34.824Z,37.80
2019-03-16T08:32:04.534Z,39.60
2019-03-16T08:34:34.163Z,38.10
2019-03-16T08:37:03.977Z,40.20
2019-03-16T08:39:33.646Z,36.90
2019-03-16T08:42:05.730Z,36.80
2019-03-16T08:44:35.427Z,38.00
2019-03-16T08:47:05.146Z,40.30
2019-03-16T08:49:34.855Z,36.80
2019-03-16T08:52:04.602Z,31.50
2019-03-16T08:54:34.352Z,29.10
2019-03-16T08:57:04.160Z,29.40
2019-03-16T08:59:33.888Z,28.20
2019-03-16T09:02:03.695Z,26.70
2019-03-16T09:04:33.319Z,27.40
2019-03-16T09:07:03.138Z,24.90
2019-03-16T09:09:32.890Z,24.10
2019-03-16T09:12:02.567Z,27.60
2019-03-16T09:14:32.324Z,27.80
2019-03-16T09:17:04.263Z,30.70
2019-03-16T09:19:34.073Z,30.60
2019-03-16T09:22:03.831Z,32.20
2019-03-16T09:24:33.580Z,31.90
2019-03-16T09:27:03.477Z,36.30
2019-03-16T09:29:33.349Z,36.30
2019-03-16T09:32:03.226Z,37.50
2019-03-16T09:34:32.990Z,36.60
2019-03-16T09:37:02.734Z,39.80
2019-03-16T09:39:34.017Z,38.90
2019-03-16T09:42:03.856Z,35.80
2019-03-16T09:44:33.651Z,40.40
2019-03-16T09:47:03.471Z,35.90
2019-03-16T09:49:33.291Z,36.40
2019-03-16T09:52:03.168Z,36.10
2019-03-16T09:54:33.131Z,36.20
2019-03-16T09:57:02.916Z,36.70
2019-03-16T09:59:35.621Z,38.10
2019-03-16T10:02:05.396Z,37.70
2019-03-16T10:04:35.266Z,37.40
2019-03-16T10:07:05.042Z,36.80
2019-03-16T10:09:34.819Z,36.30
2019-03-16T10:12:04.531Z,36.70
2019-03-16T10:14:37.051Z,37.60
2019-03-16T10:17:05.942Z,36.00
2019-03-16T10:19:35.694Z,36.90
2019-03-16T10:22:05.325Z,37.20
2019-03-16T10:24:35.163Z,35.10
2019-03-16T10:27:04.979Z,33.50
2019-03-16T10:29:34.717Z,34.60
2019-03-16T10:32:04.372Z,34.50
2019-03-16T10:34:34.105Z,37.20
2019-03-16T10:37:03.927Z,36.40
2019-03-16T10:39:33.613Z,36.60
2019-03-16T10:42:03.249Z,37.10
2019-03-16T10:44:33.189Z,34.60
2019-03-16T10:47:03.029Z,35.90
2019-03-16T10:49:32.779Z,35.80
2019-03-16T10:52:02.605Z,35.50
2019-03-16T10:54:34.932Z,35.40
2019-03-16T10:57:04.670Z,34.90
2019-03-16T10:59:35.763Z,32.80
2019-03-16T11:02:05.569Z,32.60
2019-03-16T11:04:35.291Z,32.60
2019-03-16T11:07:04.975Z,35.00
2019-03-16T11:09:34.976Z,34.00
2019-03-16T11:12:04.714Z,35.80
2019-03-16T11:14:34.449Z,36.40
2019-03-16T11:17:04.218Z,36.10
2019-03-16T11:19:33.907Z,34.90
2019-03-16T11:22:03.563Z,34.50
2019-03-16T11:24:33.402Z,36.50
2019-03-16T11:27:03.548Z,35.50
2019-03-16T11:29:33.962Z,35.00
2019-03-16T11:32:05.733Z,35.10
2019-03-16T11:34:35.503Z,37.20
2019-03-16T11:37:05.390Z,33.40
2019-03-16T11:39:35.129Z,34.20
2019-03-16T11:42:05.762Z,33.80
2019-03-16T11:44:35.826Z,33.00
2019-03-16T11:47:06.157Z,32.90
2019-03-16T11:49:36.070Z,34.70
2019-03-16T11:52:05.880Z,32.30
2019-03-16T11:54:35.620Z,32.50
2019-03-16T11:57:05.509Z,32.90
2019-03-16T11:59:35.906Z,33.80
2019-03-16T12:02:05.995Z,36.30
2019-03-16T12:04:37.511Z,32.90
2019-03-16T12:07:07.802Z,33.20
2019-03-16T12:09:45.293Z,37.60
2019-03-16T12:12:17.516Z,33.80
2019-03-16T12:14:53.331Z,34.60
2019-03-16T12:17:23.097Z,33.70
2019-03-16T12:19:53.023Z,34.30
2019-03-16T12:22:22.911Z,33.90
2019-03-16T12:24:52.973Z,34.80
2019-03-16T12:27:23.650Z,34.60
2019-03-16T12:29:56.217Z,35.20
2019-03-16T12:32:25.942Z,34.50
2019-03-16T12:34:55.996Z,33.50
2019-03-16T12:37:26.003Z,33.20
2019-03-16T12:39:55.973Z,33.20
2019-03-16T12:42:26.276Z,32.80
2019-03-16T12:44:56.321Z,31.80
2019-03-16T12:47:26.293Z,32.70
2019-03-16T12:49:56.298Z,32.90
2019-03-16T12:52:26.139Z,31.70
2019-03-16T12:54:55.897Z,32.40
2019-03-16T12:57:26.173Z,32.00
2019-03-16T12:59:56.574Z,31.40
2019-03-16T13:02:26.367Z,30.30
2019-03-16T13:04:56.051Z,29.10
2019-03-16T13:07:25.887Z,29.20
2019-03-16T13:09:55.709Z,29.00
2019-03-16T13:12:25.358Z,29.40
2019-03-16T13:14:55.102Z,31.50
2019-03-16T13:17:24.747Z,30.20
2019-03-16T13:19:54.523Z,30.50
2019-03-16T13:22:24.290Z,29.80
2019-03-16T13:24:54.598Z,30.70
2019-03-16T13:27:28.304Z,29.70
2019-03-16T13:29:59.388Z,29.80
2019-03-16T13:32:29.261Z,30.40
2019-03-16T13:34:59.087Z,31.40
2019-03-16T13:37:28.751Z,29.90
2019-03-16T13:39:58.659Z,31.50
2019-03-16T13:42:28.320Z,32.30
2019-03-16T13:44:58.006Z,31.40
2019-03-16T13:47:27.763Z,32.00
2019-03-16T13:49:57.603Z,30.20
2019-03-16T13:52:27.374Z,33.50
2019-03-16T13:54:57.094Z,31.90
2019-03-16T13:57:27.083Z,31.10
2019-03-16T13:59:56.754Z,34.50
2019-03-16T14:02:26.385Z,32.00
2019-03-16T14:04:56.074Z,33.30
2019-03-16T14:07:26.295Z,31.00
2019-03-16T14:09:56.006Z,31.40
2019-03-16T14:12:25.614Z,32.40
2019-03-16T14:14:55.589Z,31.30
2019-03-16T14:17:25.357Z,33.60
2019-03-16T14:19:55.044Z,35.20
2019-03-16T14:22:24.769Z,31.90
2019-03-16T14:24:54.487Z,32.70
2019-03-16T14:27:24.169Z,33.50
2019-03-16T14:29:53.957Z,33.00
2019-03-16T14:32:23.902Z,34.40
2019-03-16T14:34:53.708Z,33.50
2019-03-16T14:37:23.653Z,34.50
2019-03-16T14:39:53.348Z,35.50
2019-03-16T14:42:23.115Z,36.90
2019-03-16T14:44:52.755Z,36.80
2019-03-16T14:47:22.441Z,38.00
2019-03-16T14:49:52.087Z,36.90
2019-03-16T14:52:21.748Z,39.20
2019-03-16T14:54:51.432Z,37.80
2019-03-16T14:57:21.133Z,40.50
2019-03-16T14:59:50.741Z,39.50
2019-03-16T15:02:20.472Z,39.60
2019-03-16T15:04:50.111Z,41.00
2019-03-16T15:07:19.799Z,45.10
2019-03-16T15:09:49.810Z,43.90
2019-03-16T15:12:19.558Z,47.20
2019-03-16T15:14:49.451Z,45.80
2019-03-16T15:17:19.143Z,46.60
2019-03-16T15:19:48.776Z,46.40
2019-03-16T15:22:18.470Z,47.90
2019-03-16T15:24:48.127Z,50.10
2019-03-16T15:27:17.839Z,52.80
2019-03-16T15:29:47.536Z,53.00
2019-03-16T15:32:17.206Z,56.70
2019-03-16T15:34:46.895Z,58.00
2019-03-16T15:37:16.833Z,59.00
2019-03-16T15:39:46.617Z,70.10
2019-03-16T15:42:16.393Z,60.70
2019-03-16T15:44:46.110Z,68.40
2019-03-16T15:47:15.851Z,66.20
2019-03-16T15:49:45.589Z,65.10
2019-03-16T15:52:15.439Z,65.30
2019-03-16T15:54:45.306Z,68.00
2019-03-16T15:57:15.598Z,69.50
2019-03-16T15:59:45.402Z,81.50
2019-03-16T16:02:15.405Z,76.40
2019-03-16T16:04:45.114Z,77.20
2019-03-16T16:07:14.878Z,79.90
2019-03-16T16:09:44.819Z,91.10
2019-03-16T16:12:14.507Z,82.20
2019-03-16T16:14:44.203Z,86.80
2019-03-16T16:17:13.981Z,86.70
2019-03-16T16:19:43.712Z,86.00
2019-03-16T16:22:13.594Z,91.10
2019-03-16T16:24:43.566Z,90.40
2019-03-16T16:27:13.331Z,91.00
2019-03-16T16:29:46.401Z,91.70
2019-03-16T16:32:14.320Z,99.30
2019-03-16T16:34:44.022Z,96.10
2019-03-16T16:37:13.794Z,98.20
2019-03-16T16:39:43.492Z,99.90
2019-03-16T16:42:13.174Z,99.90
2019-03-16T16:44:42.903Z,99.90
2019-03-16T16:47:12.562Z,99.90
2019-03-16T16:49:42.259Z,99.90
2019-03-16T16:52:12.003Z,99.90
2019-03-16T16:54:41.898Z,99.90
2019-03-16T16:57:11.624Z,99.90
2019-03-16T16:59:41.360Z,99.90
2019-03-16T17:02:11.105Z,99.90
2019-03-16T17:04:40.770Z,99.90
2019-03-16T17:07:10.490Z,99.90
2019-03-16T17:09:40.131Z,99.90
2019-03-16T17:12:12.267Z,99.90
2019-03-16T17:14:41.968Z,99.90
2019-03-16T17:17:11.638Z,99.90
2019-03-16T17:19:41.349Z,99.90
2019-03-16T17:22:11.030Z,99.90
2019-03-16T17:24:40.702Z,99.90
2019-03-16T17:27:10.377Z,99.90
2019-03-16T17:29:40.110Z,99.90
2019-03-16T17:32:09.830Z,99.90
2019-03-16T17:34:41.234Z,99.90
2019-03-16T17:37:10.872Z,99.90
2019-03-16T17:39:40.555Z,99.90
2019-03-16T17:42:10.418Z,99.90
2019-03-16T17:44:40.133Z,99.90
2019-03-16T17:47:09.682Z,99.90
2019-03-16T17:49:39.400Z,99.90
2019-03-16T17:52:09.047Z,99.90
2019-03-16T17:54:38.773Z,99.90
2019-03-16T17:57:08.988Z,99.90
2019-03-16T17:59:41.498Z,99.90
2019-03-16T18:02:11.140Z,99.90
2019-03-16T18:04:40.818Z,99.90
2019-03-16T18:07:10.515Z,99.90
2019-03-16T18:09:40.415Z,99.90
2019-03-16T18:12:10.143Z,99.90
2019-03-16T18:14:39.814Z,99.90
2019-03-16T18:17:09.826Z,99.90
2019-03-16T18:19:39.529Z,99.90
2019-03-16T18:22:11.254Z,99.90
2019-03-16T18:24:41.231Z,99.90
2019-03-16T18:27:11.396Z,99.90
2019-03-16T18:29:41.242Z,99.90
2019-03-16T18:32:11.230Z,99.90
2019-03-16T18:34:43.199Z,99.90
2019-03-16T18:37:13.007Z,99.90
2019-03-16T18:39:42.858Z,99.90
2019-03-16T18:42:12.707Z,99.90
2019-03-16T18:44:42.566Z,99.90
2019-03-16T18:47:12.452Z,99.90
2019-03-16T18:49:42.375Z,99.90
2019-03-16T18:52:12.055Z,99.90
2019-03-16T18:54:41.846Z,99.90
2019-03-16T18:57:11.591Z,99.90
2019-03-16T18:59:43.482Z,99.90
2019-03-16T19:02:20.664Z,99.90
2019-03-16T19:04:44.682Z,99.90
2019-03-16T19:07:14.525Z,99.90
2019-03-16T19:09:44.196Z,99.90
2019-03-16T19:12:13.951Z,99.90
2019-03-16T19:14:43.722Z,99.90
2019-03-16T19:17:13.395Z,99.90
2019-03-16T19:19:43.070Z,99.90
2019-03-16T19:22:12.704Z,99.90
2019-03-16T19:24:42.370Z,99.90
2019-03-16T19:27:12.015Z,99.90
2019-03-16T19:29:41.878Z,99.90
2019-03-16T19:32:11.511Z,99.90
2019-03-16T19:34:41.195Z,99.90
2019-03-16T19:37:10.887Z,99.90
2019-03-16T19:39:41.036Z,99.90
2019-03-16T19:42:10.834Z,99.90
2019-03-16T19:44:40.607Z,99.90
2019-03-16T19:47:10.353Z,99.90
2019-03-16T19:49:40.909Z,99.90
2019-03-16T19:52:10.742Z,99.90
2019-03-16T19:54:40.395Z,99.90
2019-03-16T19:57:15.838Z,99.90
2019-03-16T19:59:41.567Z,99.90
2019-03-16T20:02:11.602Z,99.90
2019-03-16T20:04:41.658Z,99.90
2019-03-16T20:07:19.295Z,99.90
2019-03-16T20:09:42.771Z,99.90
2019-03-16T20:12:12.466Z,99.90
2019-03-16T20:14:42.489Z,99.90
2019-03-16T20:17:13.301Z,99.90
2019-03-16T20:19:43.017Z,99.90
2019-03-16T20:22:12.789Z,99.90
2019-03-16T20:24:42.524Z,99.90
2019-03-16T20:27:12.354Z,99.90
2019-03-16T20:29:42.165Z,99.90
2019-03-16T20:32:12.069Z,99.90
2019-03-16T20:34:41.778Z,99.90
2019-03-16T20:37:11.436Z,99.90
2019-03-16T20:39:41.355Z,99.90
2019-03-16T20:42:11.063Z,99.90
2019-03-16T20:44:40.959Z,99.90
2019-03-16T20:47:10.722Z,99.90
2019-03-16T20:49:40.598Z,99.90
2019-03-16T20:52:10.274Z,99.90
2019-03-16T20:54:40.037Z,99.90
2019-03-16T20:57:09.716Z,99.90
2019-03-16T20:59:39.402Z,99.90
2019-03-16T21:02:09.239Z,99.90
2019-03-16T21:04:39.118Z,99.90
2019-03-16T21:07:08.884Z,99.90
2019-03-16T21:09:40.799Z,99.90
2019-03-16T21:12:10.537Z,99.90
2019-03-16T21:14:40.715Z,99.90
2019-03-16T21:17:10.554Z,99.90
2019-03-16T21:19:40.279Z,99.90
2019-03-16T21:22:10.068Z,99.90
2019-03-16T21:24:41.026Z,99.90
2019-03-16T21:27:10.769Z,99.90
2019-03-16T21:29:41.304Z,99.90
2019-03-16T21:32:11.126Z,99.90
2019-03-16T21:34:40.852Z,99.90
2019-03-16T21:37:10.626Z,99.90
2019-03-16T21:39:40.491Z,99.90
2019-03-16T21:42:10.158Z,99.90
2019-03-16T21:44:39.916Z,99.90
2019-03-16T21:47:11.148Z,99.90
2019-03-16T21:49:40.887Z,99.90
2019-03-16T21:52:11.953Z,99.90
2019-03-16T21:54:41.714Z,99.90
2019-03-16T21:57:11.542Z,99.90
2019-03-16T21:59:41.366Z,99.90
2019-03-16T22:02:13.897Z,99.90
2019-03-16T22:04:46.978Z,99.90
2019-03-16T22:07:16.802Z,99.90
2019-03-16T22:09:47.249Z,99.90
2019-03-16T22:12:18.010Z,99.90
2019-03-16T22:14:47.766Z,99.90
2019-03-16T22:17:17.450Z,99.90
2019-03-16T22:19:47.268Z,99.90
2019-03-16T22:22:16.969Z,99.90
2019-03-16T22:24:46.813Z,99.90
2019-03-16T22:27:16.628Z,99.90
2019-03-16T22:29:49.259Z,99.90
2019-03-16T22:32:19.085Z,99.90
2019-03-16T22:34:52.613Z,99.90
2019-03-16T22:37:22.873Z,99.90
2019-03-16T22:39:52.542Z,99.90
2019-03-16T22:42:22.262Z,99.90
2019-03-16T22:44:52.006Z,99.90
2019-03-16T22:47:21.706Z,99.90
2019-03-16T22:49:51.698Z,99.90
2019-03-16T22:52:27.023Z,99.90
2019-03-16T22:54:56.731Z,99.90
2019-03-16T22:57:26.514Z,99.90
2019-03-16T22:59:56.593Z,99.90
2019-03-16T23:02:26.384Z,99.90
2019-03-16T23:04:56.032Z,99.90
2019-03-16T23:07:25.974Z,99.90
2019-03-16T23:09:55.598Z,99.90
2019-03-16T23:12:25.298Z,99.90
2019-03-16T23:14:54.933Z,99.90
2019-03-16T23:17:24.844Z,99.90
2019-03-16T23:19:54.678Z,99.90
2019-03-16T23:22:24.979Z,99.90
2019-03-16T23:24:54.957Z,99.90
2019-03-16T23:27:25.421Z,99.90
2019-03-16T23:29:55.464Z,99.90
2019-03-16T23:32:25.316Z,99.90
2019-03-16T23:34:55.445Z,99.90
2019-03-16T23:37:25.306Z,99.90
2019-03-16T23:39:55.039Z,99.90
2019-03-16T23:42:24.784Z,99.90
2019-03-16T23:44:54.461Z,99.90
2019-03-16T23:47:24.142Z,99.90
2019-03-16T23:49:54.089Z,99.90
2019-03-16T23:52:23.850Z,99.90
2019-03-16T23:54:53.583Z,99.90
2019-03-16T23:57:23.299Z,99.90
2019-03-16T23:59:53.154Z,99.90
